Time;durP1;ratioP1;P1;durP2;ratioP2;P2;SDS_P1;SDS_P2;PMS_P1;PMS_P2;Temp;Humidity;BMP_temperature;BMP_pressure;BME280_temperature;BME280_humidity;BME280_pressure;Samples;Min_cycle;Max_cycle;Signal;HPM_P1;HPM_P2
2021/12/21 00:01:44;;;;;;;0.00;0.00;;;;;;;;;;4935818;28;20320;-72
2021/12/21 00:04:11;;;;;;;0.00;0.00;;;;;;;;;;4935327;28;20210;-70
2021/12/21 00:06:42;;;;;;;0.00;0.00;;;;;;;;;;4934777;28;20211;-71
2021/12/21 00:09:09;;;;;;;0.00;0.00;;;;;;;;;;4935060;29;20242;-72
2021/12/21 00:11:37;;;;;;;0.00;0.00;;;;;;;;;;4934344;28;20199;-72
2021/12/21 00:14:18;;;;;;;0.00;0.00;;;;;;;;;;4933353;28;20212;-71
2021/12/21 00:17:06;;;;;;;0.00;0.00;;;;;;;;;;4935673;28;20686;-71
2021/12/21 00:20:05;;;;;;;0.00;0.00;;;;;;;;;;4932030;28;20199;-73
2021/12/21 00:25:19;;;;;;;0.00;0.00;;;;;;;;;;4935024;28;20207;-71
2021/12/21 00:27:47;;;;;;;0.00;0.00;;;;;;;;;;4933465;28;20211;-71
2021/12/21 00:30:16;;;;;;;0.00;0.00;;;;;;;;;;4936006;28;20234;-71
2021/12/21 00:32:43;;;;;;;0.00;0.00;;;;;;;;;;4932356;28;20196;-71
2021/12/21 00:35:11;;;;;;;0.00;0.00;;;;;;;;;;4930333;28;20191;-71
2021/12/21 00:37:41;;;;;;;0.00;0.00;;;;;;;;;;4945825;29;20214;-71
2021/12/21 00:40:09;;;;;;;0.00;0.00;;;;;;;;;;4948149;28;20199;-71
2021/12/21 00:42:36;;;;;;;0.00;0.00;;;;;;;;;;4947652;28;20205;-71
2021/12/21 00:45:04;;;;;;;0.00;0.00;;;;;;;;;;4947784;29;20200;-70
2021/12/21 00:47:34;;;;;;;0.00;0.00;;;;;;;;;;4936101;28;20195;-70
2021/12/21 00:50:03;;;;;;;0.00;0.00;;;;;;;;;;4934758;28;20325;-70
2021/12/21 00:52:31;;;;;;;0.00;0.00;;;;;;;;;;4935129;28;20200;-71
2021/12/21 00:55:00;;;;;;;0.00;0.00;;;;;;;;;;4934203;28;20210;-71
2021/12/21 00:57:27;;;;;;;0.00;0.00;;;;;;;;;;4936466;28;20234;-70
2021/12/21 00:59:55;;;;;;;0.00;0.00;;;;;;;;;;4934184;28;20195;-70
2021/12/21 01:02:22;;;;;;;0.00;0.00;;;;;;;;;;4936201;28;20203;-70
2021/12/21 01:04:50;;;;;;;0.00;0.00;;;;;;;;;;4934419;28;20195;-70
2021/12/21 01:07:26;;;;;;;0.00;0.00;;;;;;;;;;4935874;28;20204;-71
2021/12/21 01:12:53;;;;;;;0.00;0.00;;;;;;;;;;4926477;28;20218;-70
2021/12/21 01:15:35;;;;;;;0.00;0.00;;;;;;;;;;4947201;28;20290;-70
2021/12/21 01:18:07;;;;;;;0.00;0.00;;;;;;;;;;4933620;28;20381;-71
2021/12/21 01:20:40;;;;;;;0.00;0.00;;;;;;;;;;4933630;28;20202;-71
2021/12/21 01:26:06;;;;;;;0.00;0.00;;;;;;;;;;4927222;28;20611;-70
2021/12/21 01:28:42;;;;;;;0.00;0.00;;;;;;;;;;4934461;28;20202;-70
2021/12/21 01:31:22;;;;;;;0.00;0.00;;;;;;;;;;4936827;28;20652;-70
2021/12/21 01:34:02;;;;;;;0.43;0.43;;;;;;;;;;4935786;28;20282;-72
2021/12/21 01:36:36;;;;;;;0.00;0.00;;;;;;;;;;4937992;28;20206;-72
2021/12/21 01:39:10;;;;;;;0.00;0.00;;;;;;;;;;4934072;28;20203;-72
2021/12/21 01:41:47;;;;;;;0.00;0.00;;;;;;;;;;4933002;28;20281;-70
2021/12/21 01:44:27;;;;;;;0.00;0.00;;;;;;;;;;4935836;28;20282;-71
2021/12/21 01:49:51;;;;;;;0.00;0.00;;;;;;;;;;4900264;29;20248;-71
2021/12/21 01:52:19;;;;;;;0.00;0.00;;;;;;;;;;4927834;28;20200;-71
2021/12/21 01:54:47;;;;;;;0.00;0.00;;;;;;;;;;4936431;28;20195;-71
2021/12/21 01:57:16;;;;;;;0.00;0.00;;;;;;;;;;4932557;28;20226;-71
2021/12/21 01:59:44;;;;;;;0.00;0.00;;;;;;;;;;4936595;28;20199;-70
2021/12/21 02:02:12;;;;;;;0.00;0.00;;;;;;;;;;4933848;28;20204;-73
2021/12/21 02:04:40;;;;;;;0.00;0.00;;;;;;;;;;4937636;28;20652;-71
2021/12/21 02:07:08;;;;;;;0.00;0.00;;;;;;;;;;4937160;28;20225;-70
2021/12/21 02:09:37;;;;;;;0.00;0.00;;;;;;;;;;4941121;28;20622;-70
2021/12/21 02:12:05;;;;;;;0.00;0.00;;;;;;;;;;4935496;28;20214;-71
2021/12/21 02:14:34;;;;;;;0.00;0.00;;;;;;;;;;4936909;28;20199;-70
2021/12/21 02:17:20;;;;;;;0.00;0.00;;;;;;;;;;4940005;28;20206;-70
2021/12/21 02:20:03;;;;;;;0.00;0.00;;;;;;;;;;4939133;28;20207;-70
2021/12/21 02:22:33;;;;;;;0.00;0.00;;;;;;;;;;4935819;28;20209;-72
2021/12/21 02:25:17;;;;;;;0.00;0.00;;;;;;;;;;4937662;28;20202;-70
2021/12/21 02:27:56;;;;;;;0.00;0.00;;;;;;;;;;4938321;28;20744;-71
2021/12/21 02:30:24;;;;;;;0.00;0.00;;;;;;;;;;4937003;28;20309;-70
2021/12/21 02:32:51;;;;;;;0.00;0.00;;;;;;;;;;4936718;28;20564;-70
2021/12/21 02:35:20;;;;;;;0.00;0.00;;;;;;;;;;4938959;28;20208;-70
2021/12/21 02:37:47;;;;;;;0.00;0.00;;;;;;;;;;4940069;28;20199;-72
2021/12/21 02:40:15;;;;;;;0.00;0.00;;;;;;;;;;4939098;28;20728;-72
2021/12/21 02:42:42;;;;;;;0.00;0.00;;;;;;;;;;4940034;28;20195;-70
2021/12/21 02:45:11;;;;;;;0.00;0.00;;;;;;;;;;4936731;28;20576;-70
2021/12/21 02:47:39;;;;;;;0.00;0.00;;;;;;;;;;4939256;28;20209;-70
2021/12/21 02:50:07;;;;;;;0.00;0.00;;;;;;;;;;4936769;28;20227;-70
2021/12/21 02:52:36;;;;;;;0.00;0.00;;;;;;;;;;4940410;28;20565;-70
2021/12/21 02:55:05;;;;;;;0.00;0.00;;;;;;;;;;4938116;28;20238;-70
2021/12/21 02:57:32;;;;;;;0.00;0.00;;;;;;;;;;4937478;28;20262;-70
2021/12/21 03:00:01;;;;;;;2.20;2.10;;;;;;;;;;4938712;28;20204;-70
2021/12/21 03:02:29;;;;;;;0.00;0.00;;;;;;;;;;4938405;28;20214;-70
2021/12/21 03:04:56;;;;;;;0.00;0.00;;;;;;;;;;4936394;28;20227;-72
2021/12/21 03:07:53;;;;;;;0.00;0.00;;;;;;;;;;4940402;28;20207;-70
2021/12/21 03:10:23;;;;;;;0.00;0.00;;;;;;;;;;4939681;28;20742;-70
2021/12/21 03:15:42;;;;;;;0.00;0.00;;;;;;;;;;4923888;28;20207;-70
2021/12/21 03:18:09;;;;;;;0.00;0.00;;;;;;;;;;4935503;28;20230;-70
2021/12/21 03:20:36;;;;;;;0.00;0.00;;;;;;;;;;4940273;28;20262;-70
2021/12/21 03:23:04;;;;;;;0.00;0.00;;;;;;;;;;4938999;28;20191;-71
2021/12/21 03:25:32;;;;;;;0.00;0.00;;;;;;;;;;4939504;28;20214;-70
2021/12/21 03:28:00;;;;;;;0.00;0.00;;;;;;;;;;4938600;28;20565;-70
2021/12/21 03:30:27;;;;;;;0.00;0.00;;;;;;;;;;4939699;28;20246;-70
2021/12/21 03:32:55;;;;;;;0.00;0.00;;;;;;;;;;4940258;28;20211;-70
2021/12/21 03:35:22;;;;;;;0.00;0.00;;;;;;;;;;4937818;28;20204;-70
2021/12/21 03:37:50;;;;;;;0.00;0.00;;;;;;;;;;4936957;28;20561;-70
2021/12/21 03:40:17;;;;;;;0.00;0.00;;;;;;;;;;4935882;28;20581;-72
2021/12/21 03:42:46;;;;;;;0.00;0.00;;;;;;;;;;4935983;28;20223;-69
2021/12/21 03:45:13;;;;;;;0.00;0.00;;;;;;;;;;4936796;28;20203;-69
2021/12/21 03:47:41;;;;;;;0.00;0.00;;;;;;;;;;4936362;28;20199;-70
2021/12/21 03:50:15;;;;;;;0.00;0.00;;;;;;;;;;4935386;28;21639;-70
2021/12/21 03:52:42;;;;;;;0.00;0.00;;;;;;;;;;4936291;28;20203;-71
2021/12/21 03:55:10;;;;;;;0.00;0.00;;;;;;;;;;4937212;28;20195;-71
2021/12/21 03:57:37;;;;;;;0.00;0.00;;;;;;;;;;4936202;28;20204;-71
2021/12/21 04:00:07;;;;;;;0.00;0.00;;;;;;;;;;4938488;28;20200;-71
2021/12/21 04:02:35;;;;;;;0.00;0.00;;;;;;;;;;4936162;28;20280;-71
2021/12/21 04:05:02;;;;;;;0.00;0.00;;;;;;;;;;4938123;28;20210;-70
2021/12/21 04:07:29;;;;;;;0.00;0.00;;;;;;;;;;4937503;28;20204;-71
2021/12/21 04:09:57;;;;;;;0.00;0.00;;;;;;;;;;4937235;28;20468;-70
2021/12/21 04:12:24;;;;;;;0.10;0.10;;;;;;;;;;4935941;28;20269;-71
2021/12/21 04:14:52;;;;;;;0.00;0.00;;;;;;;;;;4935456;28;20200;-72
2021/12/21 04:17:23;;;;;;;0.00;0.00;;;;;;;;;;4936540;28;20290;-70
2021/12/21 04:19:51;;;;;;;0.00;0.00;;;;;;;;;;4938395;28;20199;-71
2021/12/21 04:22:20;;;;;;;0.00;0.00;;;;;;;;;;4940358;28;20580;-71
2021/12/21 04:24:47;;;;;;;0.00;0.00;;;;;;;;;;4934000;28;20208;-71
2021/12/21 04:27:15;;;;;;;0.00;0.00;;;;;;;;;;4936208;28;20214;-70
2021/12/21 04:29:42;;;;;;;0.00;0.00;;;;;;;;;;4938025;28;20241;-71
2021/12/21 04:32:09;;;;;;;0.00;0.00;;;;;;;;;;4936321;28;20302;-71
2021/12/21 04:34:39;;;;;;;0.00;0.00;;;;;;;;;;4937438;28;20195;-71
2021/12/21 04:37:07;;;;;;;0.00;0.00;;;;;;;;;;4934742;28;20200;-71
2021/12/21 04:39:40;;;;;;;0.00;0.00;;;;;;;;;;4939712;28;20203;-71
2021/12/21 04:42:08;;;;;;;0.00;0.00;;;;;;;;;;4935939;28;20207;-70
2021/12/21 04:44:35;;;;;;;0.00;0.00;;;;;;;;;;4934576;28;20207;-70
2021/12/21 04:47:03;;;;;;;0.00;0.00;;;;;;;;;;4938212;28;20214;-69
2021/12/21 04:49:32;;;;;;;0.00;0.00;;;;;;;;;;4937206;28;20198;-70
2021/12/21 04:52:01;;;;;;;1.40;1.30;;;;;;;;;;4934499;29;20238;-71
2021/12/21 04:54:28;;;;;;;0.00;0.00;;;;;;;;;;4939440;28;20615;-70
2021/12/21 04:56:56;;;;;;;0.00;0.00;;;;;;;;;;4938501;28;21746;-69
2021/12/21 04:59:23;;;;;;;0.33;0.33;;;;;;;;;;4934153;28;20603;-69
2021/12/21 05:01:52;;;;;;;0.00;0.00;;;;;;;;;;4938264;28;20207;-71
2021/12/21 05:04:20;;;;;;;0.00;0.00;;;;;;;;;;4939914;28;20195;-72
2021/12/21 05:06:47;;;;;;;0.30;0.30;;;;;;;;;;4937902;28;20207;-71
2021/12/21 05:09:24;;;;;;;0.20;0.20;;;;;;;;;;4938264;28;20532;-70
2021/12/21 05:11:53;;;;;;;0.00;0.00;;;;;;;;;;4938197;28;20237;-70
2021/12/21 05:14:21;;;;;;;0.10;0.10;;;;;;;;;;4937513;28;20199;-70
2021/12/21 05:16:48;;;;;;;0.00;0.00;;;;;;;;;;4934413;28;20550;-70
2021/12/21 05:19:15;;;;;;;0.87;0.87;;;;;;;;;;4932085;28;20195;-70
2021/12/21 05:21:43;;;;;;;0.00;0.00;;;;;;;;;;4933482;28;21764;-69
2021/12/21 05:24:10;;;;;;;0.57;0.57;;;;;;;;;;4931262;28;20668;-71
2021/12/21 05:26:39;;;;;;;0.00;0.00;;;;;;;;;;4933068;28;20615;-70
2021/12/21 05:29:06;;;;;;;0.10;0.10;;;;;;;;;;4935756;28;20199;-69
2021/12/21 05:31:34;;;;;;;0.00;0.00;;;;;;;;;;4930907;28;20211;-70
2021/12/21 05:34:01;;;;;;;0.00;0.00;;;;;;;;;;4930637;28;20199;-70
2021/12/21 05:36:29;;;;;;;0.50;0.50;;;;;;;;;;4929885;28;20226;-72
2021/12/21 05:39:01;;;;;;;0.77;0.77;;;;;;;;;;4932650;28;20211;-71
2021/12/21 05:41:40;;;;;;;0.00;0.00;;;;;;;;;;4935216;28;20199;-71
2021/12/21 05:44:09;;;;;;;0.10;0.10;;;;;;;;;;4936313;28;20211;-70
2021/12/21 05:46:36;;;;;;;0.13;0.13;;;;;;;;;;4939409;28;20207;-71
2021/12/21 05:49:04;;;;;;;0.00;0.00;;;;;;;;;;4932520;28;20203;-69
2021/12/21 05:51:31;;;;;;;0.47;0.47;;;;;;;;;;4936360;28;20227;-69
2021/12/21 05:53:58;;;;;;;0.00;0.00;;;;;;;;;;4937352;28;20195;-71
2021/12/21 05:56:27;;;;;;;0.00;0.00;;;;;;;;;;4935594;28;20226;-69
2021/12/21 05:58:54;;;;;;;0.00;0.00;;;;;;;;;;4933563;28;20232;-70
2021/12/21 06:01:23;;;;;;;0.23;0.23;;;;;;;;;;4931660;28;20210;-70
2021/12/21 06:03:50;;;;;;;6.57;6.17;;;;;;;;;;4935835;28;20684;-70
2021/12/21 06:06:18;;;;;;;0.00;0.00;;;;;;;;;;4937561;28;20550;-70
2021/12/21 06:08:47;;;;;;;0.00;0.00;;;;;;;;;;4936406;28;20187;-70
2021/12/21 06:11:15;;;;;;;0.00;0.00;;;;;;;;;;4935263;28;20538;-70
2021/12/21 06:14:09;;;;;;;0.00;0.00;;;;;;;;;;4935295;28;20214;-71
2021/12/21 06:28:06;;;;;;;0.00;0.00;;;;;;;;;;4932804;28;20293;-69
2021/12/21 06:30:34;;;;;;;0.00;0.00;;;;;;;;;;4934649;28;20225;-69
2021/12/21 06:33:03;;;;;;;0.00;0.00;;;;;;;;;;4936049;28;20199;-69
2021/12/21 06:35:31;;;;;;;0.00;0.00;;;;;;;;;;4936621;28;20203;-70
2021/12/21 06:37:58;;;;;;;0.00;0.00;;;;;;;;;;4934975;28;20199;-70
2021/12/21 06:40:26;;;;;;;0.00;0.00;;;;;;;;;;4932661;28;20215;-69
2021/12/21 06:42:54;;;;;;;0.00;0.00;;;;;;;;;;4935671;28;20454;-70
2021/12/21 06:45:33;;;;;;;0.10;0.10;;;;;;;;;;4932141;28;20192;-69
2021/12/21 06:53:32;;;;;;;0.00;0.00;;;;;;;;;;4933598;28;20198;-71
2021/12/21 06:55:59;;;;;;;0.20;0.20;;;;;;;;;;4934613;28;20231;-70
2021/12/21 06:58:27;;;;;;;0.00;0.00;;;;;;;;;;4935091;28;20191;-70
2021/12/21 07:00:54;;;;;;;0.00;0.00;;;;;;;;;;4934989;28;20191;-71
2021/12/21 07:03:22;;;;;;;0.00;0.00;;;;;;;;;;4936073;28;20206;-71
2021/12/21 07:05:51;;;;;;;0.00;0.00;;;;;;;;;;4933394;28;20192;-71
2021/12/21 07:08:23;;;;;;;0.00;0.00;;;;;;;;;;4932957;28;20577;-70
2021/12/21 07:11:03;;;;;;;0.00;0.00;;;;;;;;;;4932233;28;20603;-69
2021/12/21 07:19:01;;;;;;;0.00;0.00;;;;;;;;;;4932881;28;20210;-69
2021/12/21 07:21:30;;;;;;;0.00;0.00;;;;;;;;;;4935047;28;20427;-68
2021/12/21 07:23:57;;;;;;;0.00;0.00;;;;;;;;;;4935606;28;20613;-69
2021/12/21 07:26:26;;;;;;;0.00;0.00;;;;;;;;;;4931430;28;20210;-69
2021/12/21 07:28:53;;;;;;;0.00;0.00;;;;;;;;;;4934092;28;20274;-70
2021/12/21 07:31:20;;;;;;;0.00;0.00;;;;;;;;;;4933513;28;20230;-71
2021/12/21 07:33:48;;;;;;;0.00;0.00;;;;;;;;;;4933195;28;20199;-70
2021/12/21 07:36:15;;;;;;;0.00;0.00;;;;;;;;;;4935873;28;20203;-70
2021/12/21 07:38:44;;;;;;;0.10;0.10;;;;;;;;;;4933750;28;20207;-70
2021/12/21 07:41:11;;;;;;;0.00;0.00;;;;;;;;;;4933744;28;20195;-68
2021/12/21 07:43:39;;;;;;;0.00;0.00;;;;;;;;;;4937703;28;20568;-67
2021/12/21 07:46:06;;;;;;;0.20;0.20;;;;;;;;;;4943590;28;20545;-69
2021/12/21 07:48:33;;;;;;;1.37;1.30;;;;;;;;;;4952176;28;20206;-68
2021/12/21 07:51:01;;;;;;;0.00;0.00;;;;;;;;;;4951477;28;20235;-69
2021/12/21 07:53:28;;;;;;;0.00;0.00;;;;;;;;;;4952023;28;20215;-69
2021/12/21 07:56:01;;;;;;;0.00;0.00;;;;;;;;;;4952566;28;20219;-69
2021/12/21 07:58:30;;;;;;;0.10;0.10;;;;;;;;;;4953136;28;20201;-69
2021/12/21 08:00:58;;;;;;;0.00;0.00;;;;;;;;;;4953572;28;20206;-69
2021/12/21 08:03:25;;;;;;;0.00;0.00;;;;;;;;;;4951927;28;20286;-68
2021/12/21 08:05:55;;;;;;;0.00;0.00;;;;;;;;;;4948813;28;20183;-68
2021/12/21 08:08:26;;;;;;;0.00;0.00;;;;;;;;;;4942642;28;20310;-69
2021/12/21 08:11:07;;;;;;;0.00;0.00;;;;;;;;;;4935228;28;20516;-68
2021/12/21 08:13:36;;;;;;;0.67;0.67;;;;;;;;;;4943530;28;20218;-68
2021/12/21 08:16:03;;;;;;;0.00;0.00;;;;;;;;;;4936793;28;20266;-68
2021/12/21 08:18:31;;;;;;;0.33;0.33;;;;;;;;;;4936493;28;20207;-68
2021/12/21 08:20:58;;;;;;;0.10;0.10;;;;;;;;;;4935368;28;20207;-68
2021/12/21 08:23:26;;;;;;;0.03;0.03;;;;;;;;;;4938760;28;20574;-67
2021/12/21 08:25:54;;;;;;;0.40;0.40;;;;;;;;;;4931779;28;20199;-69
2021/12/21 08:28:21;;;;;;;0.00;0.00;;;;;;;;;;4932871;28;20203;-68
2021/12/21 08:30:50;;;;;;;0.00;0.00;;;;;;;;;;4934236;28;20453;-69
2021/12/21 08:33:18;;;;;;;0.67;0.67;;;;;;;;;;4933392;28;20192;-67
2021/12/21 08:35:46;;;;;;;0.30;0.30;;;;;;;;;;4930021;28;20208;-67
2021/12/21 08:38:16;;;;;;;0.00;0.00;;;;;;;;;;4933411;28;20206;-69
2021/12/21 08:40:46;;;;;;;0.00;0.00;;;;;;;;;;4931347;28;20587;-68
2021/12/21 08:43:16;;;;;;;0.10;0.10;;;;;;;;;;4930880;28;20588;-68
2021/12/21 08:45:44;;;;;;;2.20;1.20;;;;;;;;;;4930898;28;20199;-68
2021/12/21 08:48:13;;;;;;;0.77;0.77;;;;;;;;;;4933788;28;20195;-67
2021/12/21 08:50:41;;;;;;;0.03;0.03;;;;;;;;;;4933803;28;20655;-69
2021/12/21 08:53:09;;;;;;;0.00;0.00;;;;;;;;;;4932926;28;20246;-68
2021/12/21 08:55:36;;;;;;;0.23;0.23;;;;;;;;;;4934685;28;20235;-67
2021/12/21 08:58:04;;;;;;;0.20;0.20;;;;;;;;;;4933481;28;20195;-68
2021/12/21 09:00:31;;;;;;;0.00;0.00;;;;;;;;;;4933409;28;20203;-68
2021/12/21 09:02:58;;;;;;;0.20;0.20;;;;;;;;;;4932627;28;20210;-68
2021/12/21 09:05:30;;;;;;;0.00;0.00;;;;;;;;;;4932108;28;20220;-68
2021/12/21 09:07:58;;;;;;;0.67;0.67;;;;;;;;;;4932776;28;20200;-70
2021/12/21 09:10:25;;;;;;;0.53;0.53;;;;;;;;;;4935669;28;20198;-68
2021/12/21 09:12:53;;;;;;;0.00;0.00;;;;;;;;;;4930607;28;20219;-68
2021/12/21 09:15:21;;;;;;;0.00;0.00;;;;;;;;;;4931666;28;20690;-68
2021/12/21 09:17:49;;;;;;;0.10;0.10;;;;;;;;;;4938594;28;21168;-69
2021/12/21 09:20:19;;;;;;;0.00;0.00;;;;;;;;;;4934021;28;20690;-69
2021/12/21 09:22:49;;;;;;;1.90;1.80;;;;;;;;;;4939417;28;20195;-69
2021/12/21 09:25:16;;;;;;;2.47;2.17;;;;;;;;;;4936256;28;20199;-70
2021/12/21 09:27:44;;;;;;;11.10;4.43;;;;;;;;;;4934621;28;20203;-69
2021/12/21 09:30:13;;;;;;;0.23;0.23;;;;;;;;;;4935759;28;20206;-72
2021/12/21 09:32:41;;;;;;;0.93;0.73;;;;;;;;;;5229039;23;20234;-69
2021/12/21 09:35:09;;;;;;;2.10;0.60;;;;;;;;;;4963373;28;20202;-68
2021/12/21 09:53:14;;;;;;;0.00;0.00;;;;;;;;;;4636103;26;20269;-66
2021/12/21 09:55:41;;;;;;;0.00;0.00;;;;;;;;;;4960159;28;20201;-67
2021/12/21 09:58:08;;;;;;;0.00;0.00;;;;;;;;;;4963957;28;20219;-67
2021/12/21 10:00:36;;;;;;;0.00;0.00;;;;;;;;;;4968513;28;20442;-69
2021/12/21 10:03:06;;;;;;;0.00;0.00;;;;;;;;;;4969950;28;20206;-71
2021/12/21 10:05:35;;;;;;;0.00;0.00;;;;;;;;;;4960408;28;20547;-69
2021/12/21 10:08:04;;;;;;;0.00;0.00;;;;;;;;;;4958874;28;20644;-67
2021/12/21 10:10:37;;;;;;;0.00;0.00;;;;;;;;;;4960507;28;20202;-69
2021/12/21 10:13:09;;;;;;;0.00;0.00;;;;;;;;;;4961264;28;20771;-67
2021/12/21 10:15:39;;;;;;;0.97;0.97;;;;;;;;;;4962427;28;20199;-67
2021/12/21 10:18:06;;;;;;;0.40;0.40;;;;;;;;;;4961830;28;20202;-67
2021/12/21 10:20:34;;;;;;;0.43;0.43;;;;;;;;;;4961974;28;20219;-67
2021/12/21 10:23:08;;;;;;;2.20;1.13;;;;;;;;;;4961507;28;20242;-67
2021/12/21 10:25:40;;;;;;;1.77;1.70;;;;;;;;;;4962256;28;20213;-68
2021/12/21 10:28:07;;;;;;;0.50;0.50;;;;;;;;;;4960941;28;20607;-67
2021/12/21 10:30:35;;;;;;;0.00;0.00;;;;;;;;;;4961079;28;20217;-67
2021/12/21 10:33:02;;;;;;;1.30;1.20;;;;;;;;;;4962031;28;20603;-70
2021/12/21 10:35:34;;;;;;;0.00;0.00;;;;;;;;;;4960725;28;20195;-66
2021/12/21 10:38:04;;;;;;;0.63;0.63;;;;;;;;;;4960779;28;20230;-67
2021/12/21 10:40:31;;;;;;;0.00;0.00;;;;;;;;;;4960683;28;20273;-66
2021/12/21 10:43:01;;;;;;;0.00;0.00;;;;;;;;;;4961606;28;20203;-69
2021/12/21 10:45:30;;;;;;;0.17;0.17;;;;;;;;;;4959790;28;20211;-67
2021/12/21 10:47:58;;;;;;;1.33;1.13;;;;;;;;;;4958837;28;20190;-66
2021/12/21 10:50:26;;;;;;;0.20;0.20;;;;;;;;;;4962059;28;20198;-66
2021/12/21 10:52:57;;;;;;;0.00;0.00;;;;;;;;;;4959209;28;20603;-67
2021/12/21 10:55:29;;;;;;;1.33;1.23;;;;;;;;;;4968766;28;20190;-68
2021/12/21 10:58:09;;;;;;;1.47;0.77;;;;;;;;;;4967669;28;20265;-68
2021/12/21 11:00:38;;;;;;;1.13;1.13;;;;;;;;;;4954192;28;20191;-68
2021/12/21 11:03:06;;;;;;;2.13;2.03;;;;;;;;;;4956315;28;20603;-69
2021/12/21 11:05:33;;;;;;;0.93;0.93;;;;;;;;;;4962790;28;20619;-68
2021/12/21 11:08:06;;;;;;;0.40;0.40;;;;;;;;;;4963484;28;20743;-68
2021/12/21 11:10:34;;;;;;;1.40;0.40;;;;;;;;;;4959134;28;20767;-68
2021/12/21 11:13:09;;;;;;;2.63;2.43;;;;;;;;;;4970517;28;20210;-68
2021/12/21 11:15:38;;;;;;;0.50;0.50;;;;;;;;;;4975729;28;20196;-69
2021/12/21 11:18:06;;;;;;;2.47;2.27;;;;;;;;;;4960489;28;20191;-70
2021/12/21 11:20:35;;;;;;;2.83;1.33;;;;;;;;;;4962680;28;20281;-68
2021/12/21 11:23:03;;;;;;;5.07;2.57;;;;;;;;;;4963400;28;20213;-68
2021/12/21 11:25:31;;;;;;;3.70;2.37;;;;;;;;;;4962351;28;20190;-72
2021/12/21 11:28:00;;;;;;;0.70;0.70;;;;;;;;;;4961097;28;20195;-69
2021/12/21 11:30:30;;;;;;;1.23;1.13;;;;;;;;;;4962585;28;20205;-69
2021/12/21 11:32:57;;;;;;;1.73;1.63;;;;;;;;;;4961918;28;20211;-69
2021/12/21 11:38:12;;;;;;;4.47;4.27;;;;;;;;;;4960712;28;20205;-70
2021/12/21 11:40:40;;;;;;;0.60;0.60;;;;;;;;;;4961426;28;20206;-69
2021/12/21 11:43:14;;;;;;;1.80;1.10;;;;;;;;;;4961748;28;20200;-69
2021/12/21 11:45:49;;;;;;;0.27;0.27;;;;;;;;;;4959643;28;20248;-70
2021/12/21 11:48:19;;;;;;;0.43;0.43;;;;;;;;;;4962450;28;20244;-68
2021/12/21 11:50:48;;;;;;;0.07;0.07;;;;;;;;;;4960911;28;20210;-68
2021/12/21 11:53:17;;;;;;;2.77;2.53;;;;;;;;;;4965727;28;20238;-70
2021/12/21 11:55:46;;;;;;;3.70;1.10;;;;;;;;;;4970435;28;20238;-70
2021/12/21 11:58:18;;;;;;;0.83;0.83;;;;;;;;;;4958608;28;20715;-71
2021/12/21 12:00:52;;;;;;;0.50;0.50;;;;;;;;;;4959815;28;20206;-69
2021/12/21 12:03:21;;;;;;;1.50;1.40;;;;;;;;;;4962842;28;20198;-69
2021/12/21 12:05:53;;;;;;;1.97;0.67;;;;;;;;;;4956112;28;20202;-69
2021/12/21 12:08:21;;;;;;;1.50;1.40;;;;;;;;;;4956612;28;20662;-70
2021/12/21 12:10:50;;;;;;;0.10;0.10;;;;;;;;;;4956904;28;20206;-68
2021/12/21 12:13:18;;;;;;;1.87;1.83;;;;;;;;;;4954639;28;20226;-71
2021/12/21 12:15:46;;;;;;;0.70;0.70;;;;;;;;;;4953541;28;20210;-71
2021/12/21 12:18:22;;;;;;;0.40;0.40;;;;;;;;;;4955970;28;20191;-70
2021/12/21 12:20:50;;;;;;;0.00;0.00;;;;;;;;;;4953821;28;20209;-71
2021/12/21 12:23:19;;;;;;;2.90;2.00;;;;;;;;;;4955768;28;20194;-69
2021/12/21 12:25:51;;;;;;;0.40;0.40;;;;;;;;;;4957077;28;20198;-69
2021/12/21 12:28:22;;;;;;;0.10;0.10;;;;;;;;;;4955700;28;20194;-69
2021/12/21 12:30:50;;;;;;;0.23;0.23;;;;;;;;;;4956288;28;20210;-67
2021/12/21 12:33:18;;;;;;;0.53;0.53;;;;;;;;;;4954869;28;20226;-69
2021/12/21 12:35:47;;;;;;;0.00;0.00;;;;;;;;;;4954587;28;20206;-67
2021/12/21 12:38:19;;;;;;;2.30;2.10;;;;;;;;;;4956864;28;20198;-70
2021/12/21 12:40:47;;;;;;;0.07;0.07;;;;;;;;;;4955756;28;20209;-69
2021/12/21 12:43:18;;;;;;;0.17;0.17;;;;;;;;;;4953246;28;20337;-69
2021/12/21 12:45:49;;;;;;;0.00;0.00;;;;;;;;;;4955069;28;20205;-69
2021/12/21 12:48:21;;;;;;;0.10;0.10;;;;;;;;;;4954635;28;20249;-69
2021/12/21 12:50:51;;;;;;;0.10;0.10;;;;;;;;;;4954266;28;20214;-68
2021/12/21 12:53:18;;;;;;;0.43;0.43;;;;;;;;;;4954817;28;20726;-68
2021/12/21 12:55:49;;;;;;;5.40;2.10;;;;;;;;;;4960348;28;20213;-68
2021/12/21 12:58:20;;;;;;;0.10;0.10;;;;;;;;;;4953240;28;20688;-68
2021/12/21 13:00:54;;;;;;;0.17;0.17;;;;;;;;;;4957862;28;20201;-69
2021/12/21 13:03:23;;;;;;;0.10;0.10;;;;;;;;;;4954628;28;20675;-70
2021/12/21 13:05:54;;;;;;;0.50;0.50;;;;;;;;;;4953264;28;20290;-69
2021/12/21 13:08:22;;;;;;;0.60;0.60;;;;;;;;;;4954528;28;20297;-69
2021/12/21 13:10:51;;;;;;;0.00;0.00;;;;;;;;;;4957557;28;20194;-69
2021/12/21 13:13:18;;;;;;;0.00;0.00;;;;;;;;;;4956301;28;20234;-69
2021/12/21 13:15:47;;;;;;;0.00;0.00;;;;;;;;;;4956697;28;20190;-69
2021/12/21 13:18:17;;;;;;;0.10;0.10;;;;;;;;;;4957584;28;20206;-69
2021/12/21 13:20:45;;;;;;;0.00;0.00;;;;;;;;;;4955127;28;20203;-69
2021/12/21 13:23:16;;;;;;;1.00;0.67;;;;;;;;;;4953360;28;20206;-70
2021/12/21 13:25:53;;;;;;;0.00;0.00;;;;;;;;;;4953471;28;20205;-68
2021/12/21 13:28:21;;;;;;;0.00;0.00;;;;;;;;;;4952155;28;20198;-68
2021/12/21 13:30:48;;;;;;;0.00;0.00;;;;;;;;;;4957813;28;20678;-68
2021/12/21 13:33:22;;;;;;;0.00;0.00;;;;;;;;;;4962557;28;20234;-68
2021/12/21 13:35:50;;;;;;;0.00;0.00;;;;;;;;;;4964725;28;20206;-69
2021/12/21 13:38:20;;;;;;;0.07;0.07;;;;;;;;;;4963964;28;20198;-68
2021/12/21 13:40:59;;;;;;;0.00;0.00;;;;;;;;;;4967115;28;20199;-68
2021/12/21 13:43:26;;;;;;;1.13;1.07;;;;;;;;;;4968280;28;20206;-68
2021/12/21 13:45:59;;;;;;;0.00;0.00;;;;;;;;;;4966147;28;20218;-67
2021/12/21 13:48:26;;;;;;;0.00;0.00;;;;;;;;;;4969331;28;20207;-68
2021/12/21 13:50:54;;;;;;;1.00;0.97;;;;;;;;;;4970595;28;20207;-68
2021/12/21 13:53:23;;;;;;;0.00;0.00;;;;;;;;;;4976464;28;20241;-68
2021/12/21 13:55:53;;;;;;;0.10;0.10;;;;;;;;;;4965985;28;20206;-68
2021/12/21 13:58:23;;;;;;;0.93;0.83;;;;;;;;;;4963326;28;20210;-69
2021/12/21 14:00:54;;;;;;;0.00;0.00;;;;;;;;;;4971193;28;20686;-69
2021/12/21 14:03:31;;;;;;;0.83;0.33;;;;;;;;;;4973095;28;20568;-69
2021/12/21 14:06:08;;;;;;;0.00;0.00;;;;;;;;;;4969872;28;20214;-69
2021/12/21 14:08:38;;;;;;;0.20;0.20;;;;;;;;;;4962984;28;21424;-70
2021/12/21 14:11:08;;;;;;;0.00;0.00;;;;;;;;;;4970297;28;20326;-70
2021/12/21 14:13:37;;;;;;;0.00;0.00;;;;;;;;;;4970145;28;20226;-70
2021/12/21 14:16:09;;;;;;;2.47;2.37;;;;;;;;;;4969562;28;20202;-70
2021/12/21 14:18:38;;;;;;;0.23;0.23;;;;;;;;;;4968144;28;20292;-69
2021/12/21 14:21:07;;;;;;;0.00;0.00;;;;;;;;;;4971482;28;20688;-69
2021/12/21 14:23:35;;;;;;;2.73;1.70;;;;;;;;;;4966152;28;20202;-68
2021/12/21 14:26:11;;;;;;;0.33;0.13;;;;;;;;;;4970368;28;20201;-68
2021/12/21 14:28:53;;;;;;;0.93;0.93;;;;;;;;;;4966208;28;20210;-70
2021/12/21 14:31:22;;;;;;;0.07;0.07;;;;;;;;;;4967872;28;20256;-69
2021/12/21 14:33:51;;;;;;;0.10;0.10;;;;;;;;;;4969851;28;20342;-70
2021/12/21 14:36:19;;;;;;;2.30;0.80;;;;;;;;;;4971750;28;20210;-69
2021/12/21 14:38:54;;;;;;;0.00;0.00;;;;;;;;;;4965177;28;20210;-69
2021/12/21 14:41:25;;;;;;;0.00;0.00;;;;;;;;;;4968946;28;20213;-70
2021/12/21 14:44:02;;;;;;;0.10;0.10;;;;;;;;;;4962703;28;20587;-69
2021/12/21 14:46:30;;;;;;;1.57;1.50;;;;;;;;;;4965282;28;20216;-68
2021/12/21 14:48:58;;;;;;;0.00;0.00;;;;;;;;;;4967104;28;20669;-69
2021/12/21 14:51:26;;;;;;;0.07;0.03;;;;;;;;;;4962106;28;21164;-68
2021/12/21 14:54:05;;;;;;;0.20;0.20;;;;;;;;;;4961401;28;20233;-68
2021/12/21 14:56:36;;;;;;;0.00;0.00;;;;;;;;;;4960326;28;20286;-70
2021/12/21 14:59:06;;;;;;;0.00;0.00;;;;;;;;;;4962318;28;20214;-68
2021/12/21 15:01:38;;;;;;;0.00;0.00;;;;;;;;;;4961603;28;20273;-70
2021/12/21 15:04:15;;;;;;;0.00;0.00;;;;;;;;;;4961914;28;20681;-69
2021/12/21 15:06:43;;;;;;;0.00;0.00;;;;;;;;;;4960975;28;20203;-70
2021/12/21 15:09:10;;;;;;;0.00;0.00;;;;;;;;;;4968537;28;20198;-69
2021/12/21 15:11:44;;;;;;;0.00;0.00;;;;;;;;;;4965665;28;20209;-69
2021/12/21 15:14:11;;;;;;;0.00;0.00;;;;;;;;;;4960610;28;20237;-69
2021/12/21 15:16:39;;;;;;;0.00;0.00;;;;;;;;;;4956526;28;20206;-69
2021/12/21 15:19:06;;;;;;;0.00;0.00;;;;;;;;;;4967252;28;20202;-69
2021/12/21 15:21:33;;;;;;;0.00;0.00;;;;;;;;;;4960972;28;20202;-71
2021/12/21 15:24:02;;;;;;;0.00;0.00;;;;;;;;;;4961797;28;20211;-69
2021/12/21 15:26:30;;;;;;;0.00;0.00;;;;;;;;;;4960048;28;20661;-70
2021/12/21 15:28:59;;;;;;;0.00;0.00;;;;;;;;;;4961387;28;20211;-69
2021/12/21 15:31:27;;;;;;;0.00;0.00;;;;;;;;;;4960723;28;20214;-68
2021/12/21 15:33:55;;;;;;;0.00;0.00;;;;;;;;;;4962671;28;20230;-68
2021/12/21 15:36:22;;;;;;;0.00;0.00;;;;;;;;;;4960508;28;20202;-70
2021/12/21 15:38:53;;;;;;;0.00;0.00;;;;;;;;;;4966050;28;20209;-69
2021/12/21 15:41:26;;;;;;;0.00;0.00;;;;;;;;;;4982471;28;20198;-69
2021/12/21 15:43:53;;;;;;;0.00;0.00;;;;;;;;;;4967405;28;20650;-68
2021/12/21 15:46:22;;;;;;;0.00;0.00;;;;;;;;;;4961230;28;20203;-69
2021/12/21 15:48:50;;;;;;;0.00;0.00;;;;;;;;;;4964626;28;20214;-69
2021/12/21 15:51:19;;;;;;;0.00;0.00;;;;;;;;;;4962797;28;20214;-68
2021/12/21 15:53:46;;;;;;;0.00;0.00;;;;;;;;;;4965793;28;20211;-70